sensor_id;sensor_type;location;lat;lon;timestamp;P1;durP1;ratioP1;P2;durP2;ratioP2
54464;SDS011;40374;49.480;20.016;2023-04-03T00:01:15;2.10;;;1.33;;
54464;SDS011;40374;49.480;20.016;2023-04-03T00:03:43;2.20;;;1.48;;
54464;SDS011;40374;49.480;20.016;2023-04-03T00:06:11;2.15;;;1.60;;
54464;SDS011;40374;49.480;20.016;2023-04-03T00:08:39;2.28;;;1.35;;
54464;SDS011;40374;49.480;20.016;2023-04-03T00:11:07;2.08;;;1.75;;
54464;SDS011;40374;49.480;20.016;2023-04-03T00:13:35;3.67;;;1.67;;
54464;SDS011;40374;49.480;20.016;2023-04-03T00:16:03;1.40;;;1.30;;
54464;SDS011;40374;49.480;20.016;2023-04-03T00:18:31;4.32;;;2.55;;
54464;SDS011;40374;49.480;20.016;2023-04-03T00:20:58;4.22;;;1.80;;
54464;SDS011;40374;49.480;20.016;2023-04-03T00:23:26;5.65;;;2.10;;
54464;SDS011;40374;49.480;20.016;2023-04-03T00:25:53;3.33;;;2.03;;
54464;SDS011;40374;49.480;20.016;2023-04-03T00:28:21;9.90;;;3.83;;
54464;SDS011;40374;49.480;20.016;2023-04-03T00:30:49;6.65;;;2.70;;
54464;SDS011;40374;49.480;20.016;2023-04-03T00:33:17;4.95;;;2.30;;
54464;SDS011;40374;49.480;20.016;2023-04-03T00:35:49;6.35;;;2.80;;
54464;SDS011;40374;49.480;20.016;2023-04-03T00:38:19;3.75;;;1.85;;
54464;SDS011;40374;49.480;20.016;2023-04-03T00:40:47;2.70;;;1.80;;
54464;SDS011;40374;49.480;20.016;2023-04-03T00:43:20;3.72;;;2.15;;
54464;SDS011;40374;49.480;20.016;2023-04-03T00:45:54;2.70;;;1.40;;
54464;SDS011;40374;49.480;20.016;2023-04-03T00:48:27;1.48;;;1.10;;
54464;SDS011;40374;49.480;20.016;2023-04-03T00:50:58;6.50;;;2.08;;
54464;SDS011;40374;49.480;20.016;2023-04-03T00:53:46;2.22;;;1.30;;
54464;SDS011;40374;49.480;20.016;2023-04-03T00:56:18;2.20;;;1.50;;
54464;SDS011;40374;49.480;20.016;2023-04-03T00:58:59;2.15;;;1.20;;
54464;SDS011;40374;49.480;20.016;2023-04-03T01:01:31;2.08;;;1.45;;
54464;SDS011;40374;49.480;20.016;2023-04-03T01:04:00;2.67;;;1.55;;
54464;SDS011;40374;49.480;20.016;2023-04-03T01:06:31;1.80;;;1.33;;
54464;SDS011;40374;49.480;20.016;2023-04-03T01:09:07;2.53;;;1.58;;
54464;SDS011;40374;49.480;20.016;2023-04-03T01:11:34;7.97;;;2.47;;
54464;SDS011;40374;49.480;20.016;2023-04-03T01:14:02;1.92;;;1.27;;
54464;SDS011;40374;49.480;20.016;2023-04-03T01:16:29;3.78;;;1.83;;
54464;SDS011;40374;49.480;20.016;2023-04-03T01:18:59;1.73;;;1.30;;
54464;SDS011;40374;49.480;20.016;2023-04-03T01:24:08;1.27;;;1.17;;
54464;SDS011;40374;49.480;20.016;2023-04-03T01:26:46;2.72;;;1.15;;
54464;SDS011;40374;49.480;20.016;2023-04-03T01:29:15;3.00;;;1.63;;
54464;SDS011;40374;49.480;20.016;2023-04-03T01:31:54;1.67;;;1.35;;
54464;SDS011;40374;49.480;20.016;2023-04-03T01:34:25;2.60;;;1.30;;
54464;SDS011;40374;49.480;20.016;2023-04-03T01:36:53;5.55;;;2.03;;
54464;SDS011;40374;49.480;20.016;2023-04-03T01:39:22;1.40;;;0.85;;
54464;SDS011;40374;49.480;20.016;2023-04-03T01:41:50;1.33;;;1.13;;
54464;SDS011;40374;49.480;20.016;2023-04-03T01:44:25;1.17;;;0.85;;
54464;SDS011;40374;49.480;20.016;2023-04-03T01:46:52;2.00;;;1.38;;
54464;SDS011;40374;49.480;20.016;2023-04-03T01:49:21;7.20;;;2.35;;
54464;SDS011;40374;49.480;20.016;2023-04-03T01:51:49;2.53;;;1.10;;
54464;SDS011;40374;49.480;20.016;2023-04-03T01:54:17;3.83;;;1.83;;
54464;SDS011;40374;49.480;20.016;2023-04-03T01:56:44;4.50;;;1.73;;
54464;SDS011;40374;49.480;20.016;2023-04-03T01:59:13;2.88;;;1.60;;
54464;SDS011;40374;49.480;20.016;2023-04-03T02:01:40;2.08;;;1.00;;
54464;SDS011;40374;49.480;20.016;2023-04-03T02:04:08;1.15;;;1.00;;
54464;SDS011;40374;49.480;20.016;2023-04-03T02:06:35;1.10;;;0.90;;
54464;SDS011;40374;49.480;20.016;2023-04-03T02:09:03;0.98;;;0.90;;
54464;SDS011;40374;49.480;20.016;2023-04-03T02:11:31;1.20;;;0.90;;
54464;SDS011;40374;49.480;20.016;2023-04-03T02:13:58;1.48;;;1.00;;
54464;SDS011;40374;49.480;20.016;2023-04-03T02:16:26;1.50;;;1.17;;
54464;SDS011;40374;49.480;20.016;2023-04-03T02:18:53;1.48;;;0.95;;
54464;SDS011;40374;49.480;20.016;2023-04-03T02:21:21;2.17;;;1.80;;
54464;SDS011;40374;49.480;20.016;2023-04-03T02:23:49;2.20;;;1.50;;
54464;SDS011;40374;49.480;20.016;2023-04-03T02:26:18;2.08;;;1.65;;
54464;SDS011;40374;49.480;20.016;2023-04-03T02:28:46;2.92;;;2.00;;
54464;SDS011;40374;49.480;20.016;2023-04-03T02:31:13;1.40;;;1.25;;
54464;SDS011;40374;49.480;20.016;2023-04-03T02:33:43;2.60;;;1.40;;
54464;SDS011;40374;49.480;20.016;2023-04-03T02:36:13;1.92;;;0.80;;
54464;SDS011;40374;49.480;20.016;2023-04-03T02:38:43;1.92;;;1.20;;
54464;SDS011;40374;49.480;20.016;2023-04-03T02:41:12;2.60;;;1.40;;
54464;SDS011;40374;49.480;20.016;2023-04-03T02:43:40;2.03;;;1.13;;
54464;SDS011;40374;49.480;20.016;2023-04-03T02:46:07;2.92;;;1.42;;
54464;SDS011;40374;49.480;20.016;2023-04-03T02:48:35;2.83;;;1.42;;
54464;SDS011;40374;49.480;20.016;2023-04-03T02:51:03;1.70;;;1.17;;
54464;SDS011;40374;49.480;20.016;2023-04-03T02:53:31;1.25;;;0.82;;
54464;SDS011;40374;49.480;20.016;2023-04-03T02:56:03;2.22;;;1.30;;
54464;SDS011;40374;49.480;20.016;2023-04-03T02:58:31;2.08;;;1.20;;
54464;SDS011;40374;49.480;20.016;2023-04-03T03:00:59;3.03;;;1.58;;
54464;SDS011;40374;49.480;20.016;2023-04-03T03:03:27;3.35;;;1.80;;
54464;SDS011;40374;49.480;20.016;2023-04-03T03:06:04;1.40;;;0.98;;
54464;SDS011;40374;49.480;20.016;2023-04-03T03:08:33;1.05;;;0.60;;
54464;SDS011;40374;49.480;20.016;2023-04-03T03:11:02;0.80;;;0.80;;
54464;SDS011;40374;49.480;20.016;2023-04-03T03:13:31;1.63;;;0.82;;
54464;SDS011;40374;49.480;20.016;2023-04-03T03:15:59;2.33;;;0.73;;
54464;SDS011;40374;49.480;20.016;2023-04-03T03:18:26;0.93;;;0.82;;
54464;SDS011;40374;49.480;20.016;2023-04-03T03:20:54;0.50;;;0.50;;
54464;SDS011;40374;49.480;20.016;2023-04-03T03:23:24;1.05;;;0.60;;
54464;SDS011;40374;49.480;20.016;2023-04-03T03:26:00;0.47;;;0.47;;
54464;SDS011;40374;49.480;20.016;2023-04-03T03:28:29;5.55;;;0.70;;
54464;SDS011;40374;49.480;20.016;2023-04-03T03:30:57;1.20;;;0.65;;
54464;SDS011;40374;49.480;20.016;2023-04-03T03:33:26;0.95;;;0.70;;
54464;SDS011;40374;49.480;20.016;2023-04-03T03:35:53;1.45;;;1.35;;
54464;SDS011;40374;49.480;20.016;2023-04-03T03:38:22;0.60;;;0.60;;
54464;SDS011;40374;49.480;20.016;2023-04-03T03:40:50;0.80;;;0.80;;
54464;SDS011;40374;49.480;20.016;2023-04-03T03:43:20;0.63;;;0.60;;
54464;SDS011;40374;49.480;20.016;2023-04-03T03:45:52;1.17;;;0.77;;
54464;SDS011;40374;49.480;20.016;2023-04-03T03:48:22;0.82;;;0.73;;
54464;SDS011;40374;49.480;20.016;2023-04-03T03:50:50;1.05;;;0.70;;
54464;SDS011;40374;49.480;20.016;2023-04-03T03:53:22;1.55;;;0.80;;
54464;SDS011;40374;49.480;20.016;2023-04-03T03:55:52;3.05;;;1.20;;
54464;SDS011;40374;49.480;20.016;2023-04-03T03:58:23;5.03;;;0.70;;
54464;SDS011;40374;49.480;20.016;2023-04-03T04:00:50;1.17;;;0.82;;
54464;SDS011;40374;49.480;20.016;2023-04-03T04:03:17;1.25;;;1.15;;
54464;SDS011;40374;49.480;20.016;2023-04-03T04:05:47;1.20;;;0.90;;
54464;SDS011;40374;49.480;20.016;2023-04-03T04:08:15;1.73;;;0.88;;
54464;SDS011;40374;49.480;20.016;2023-04-03T04:10:44;2.67;;;1.40;;
54464;SDS011;40374;49.480;20.016;2023-04-03T04:13:14;1.70;;;1.33;;
54464;SDS011;40374;49.480;20.016;2023-04-03T04:15:43;2.90;;;1.45;;
54464;SDS011;40374;49.480;20.016;2023-04-03T04:18:10;5.30;;;1.83;;
54464;SDS011;40374;49.480;20.016;2023-04-03T04:20:41;6.22;;;2.28;;
54464;SDS011;40374;49.480;20.016;2023-04-03T04:23:11;28.45;;;10.38;;
54464;SDS011;40374;49.480;20.016;2023-04-03T04:25:39;13.57;;;5.25;;
54464;SDS011;40374;49.480;20.016;2023-04-03T04:28:07;19.27;;;8.38;;
54464;SDS011;40374;49.480;20.016;2023-04-03T04:30:35;25.90;;;11.45;;
54464;SDS011;40374;49.480;20.016;2023-04-03T04:33:05;37.33;;;12.20;;
54464;SDS011;40374;49.480;20.016;2023-04-03T04:35:34;31.23;;;9.75;;
54464;SDS011;40374;49.480;20.016;2023-04-03T04:38:03;27.50;;;10.57;;
54464;SDS011;40374;49.480;20.016;2023-04-03T04:40:32;24.90;;;9.05;;
54464;SDS011;40374;49.480;20.016;2023-04-03T04:42:59;13.80;;;5.90;;
54464;SDS011;40374;49.480;20.016;2023-04-03T04:45:27;12.88;;;6.07;;
54464;SDS011;40374;49.480;20.016;2023-04-03T04:47:55;10.05;;;3.00;;
54464;SDS011;40374;49.480;20.016;2023-04-03T04:50:24;10.52;;;4.28;;
54464;SDS011;40374;49.480;20.016;2023-04-03T04:52:53;6.97;;;3.58;;
54464;SDS011;40374;49.480;20.016;2023-04-03T04:55:20;2.17;;;1.20;;
54464;SDS011;40374;49.480;20.016;2023-04-03T04:57:49;1.70;;;1.02;;
54464;SDS011;40374;49.480;20.016;2023-04-03T05:00:17;1.30;;;1.05;;
54464;SDS011;40374;49.480;20.016;2023-04-03T05:02:45;1.30;;;1.00;;
54464;SDS011;40374;49.480;20.016;2023-04-03T05:05:15;1.83;;;1.05;;
54464;SDS011;40374;49.480;20.016;2023-04-03T05:07:43;1.48;;;1.00;;
54464;SDS011;40374;49.480;20.016;2023-04-03T05:10:11;1.13;;;1.02;;
54464;SDS011;40374;49.480;20.016;2023-04-03T05:12:39;2.42;;;0.80;;
54464;SDS011;40374;49.480;20.016;2023-04-03T05:15:07;1.23;;;1.13;;
54464;SDS011;40374;49.480;20.016;2023-04-03T05:17:36;1.10;;;0.70;;
54464;SDS011;40374;49.480;20.016;2023-04-03T05:20:05;1.92;;;0.93;;
54464;SDS011;40374;49.480;20.016;2023-04-03T05:22:34;2.17;;;1.23;;
54464;SDS011;40374;49.480;20.016;2023-04-03T05:25:05;1.25;;;1.08;;
54464;SDS011;40374;49.480;20.016;2023-04-03T05:27:36;2.92;;;1.45;;
54464;SDS011;40374;49.480;20.016;2023-04-03T05:30:03;1.33;;;1.00;;
54464;SDS011;40374;49.480;20.016;2023-04-03T05:32:33;1.13;;;0.98;;
54464;SDS011;40374;49.480;20.016;2023-04-03T05:35:11;2.47;;;1.27;;
54464;SDS011;40374;49.480;20.016;2023-04-03T05:37:40;2.28;;;0.90;;
54464;SDS011;40374;49.480;20.016;2023-04-03T05:40:08;0.73;;;0.73;;
54464;SDS011;40374;49.480;20.016;2023-04-03T05:42:40;1.23;;;0.98;;
54464;SDS011;40374;49.480;20.016;2023-04-03T05:45:07;1.05;;;0.95;;
54464;SDS011;40374;49.480;20.016;2023-04-03T05:47:35;2.15;;;1.20;;
54464;SDS011;40374;49.480;20.016;2023-04-03T05:50:05;4.78;;;1.40;;
54464;SDS011;40374;49.480;20.016;2023-04-03T05:52:35;1.80;;;1.38;;
54464;SDS011;40374;49.480;20.016;2023-04-03T05:55:05;2.25;;;1.45;;
54464;SDS011;40374;49.480;20.016;2023-04-03T05:57:35;1.88;;;1.13;;
54464;SDS011;40374;49.480;20.016;2023-04-03T06:00:04;3.28;;;1.67;;
54464;SDS011;40374;49.480;20.016;2023-04-03T06:02:48;2.58;;;1.73;;
54464;SDS011;40374;49.480;20.016;2023-04-03T06:05:20;2.45;;;1.27;;
54464;SDS011;40374;49.480;20.016;2023-04-03T06:07:47;3.35;;;1.65;;
54464;SDS011;40374;49.480;20.016;2023-04-03T06:10:16;2.63;;;1.17;;
54464;SDS011;40374;49.480;20.016;2023-04-03T06:12:44;4.55;;;1.40;;
54464;SDS011;40374;49.480;20.016;2023-04-03T06:15:12;4.55;;;1.85;;
54464;SDS011;40374;49.480;20.016;2023-04-03T06:17:40;1.35;;;1.13;;
54464;SDS011;40374;49.480;20.016;2023-04-03T06:20:07;0.82;;;0.82;;
54464;SDS011;40374;49.480;20.016;2023-04-03T06:22:36;2.97;;;1.23;;
54464;SDS011;40374;49.480;20.016;2023-04-03T06:25:04;3.63;;;2.10;;
54464;SDS011;40374;49.480;20.016;2023-04-03T06:27:35;2.13;;;1.35;;
54464;SDS011;40374;49.480;20.016;2023-04-03T06:30:04;2.22;;;1.40;;
54464;SDS011;40374;49.480;20.016;2023-04-03T06:32:33;4.28;;;2.00;;
54464;SDS011;40374;49.480;20.016;2023-04-03T06:35:00;2.00;;;1.52;;
54464;SDS011;40374;49.480;20.016;2023-04-03T06:37:28;4.80;;;2.50;;
54464;SDS011;40374;49.480;20.016;2023-04-03T06:39:59;2.58;;;1.80;;
54464;SDS011;40374;49.480;20.016;2023-04-03T06:42:27;2.72;;;1.58;;
54464;SDS011;40374;49.480;20.016;2023-04-03T06:45:05;2.65;;;1.50;;
54464;SDS011;40374;49.480;20.016;2023-04-03T06:47:34;2.10;;;1.10;;
54464;SDS011;40374;49.480;20.016;2023-04-03T06:50:02;2.60;;;1.60;;
54464;SDS011;40374;49.480;20.016;2023-04-03T06:52:30;2.70;;;1.38;;
54464;SDS011;40374;49.480;20.016;2023-04-03T06:54:57;4.30;;;2.42;;
54464;SDS011;40374;49.480;20.016;2023-04-03T06:57:26;1.00;;;0.85;;
54464;SDS011;40374;49.480;20.016;2023-04-03T06:59:54;3.63;;;2.42;;
54464;SDS011;40374;49.480;20.016;2023-04-03T07:02:22;4.07;;;2.40;;
54464;SDS011;40374;49.480;20.016;2023-04-03T07:04:50;3.58;;;2.17;;
54464;SDS011;40374;49.480;20.016;2023-04-03T07:07:17;5.82;;;2.83;;
54464;SDS011;40374;49.480;20.016;2023-04-03T07:09:45;4.38;;;2.15;;
54464;SDS011;40374;49.480;20.016;2023-04-03T07:12:15;9.18;;;3.42;;
54464;SDS011;40374;49.480;20.016;2023-04-03T07:14:42;8.18;;;2.70;;
54464;SDS011;40374;49.480;20.016;2023-04-03T07:17:10;3.72;;;2.38;;
54464;SDS011;40374;49.480;20.016;2023-04-03T07:19:38;5.47;;;2.30;;
54464;SDS011;40374;49.480;20.016;2023-04-03T07:22:05;1.67;;;1.38;;
54464;SDS011;40374;49.480;20.016;2023-04-03T07:24:33;4.22;;;2.78;;
54464;SDS011;40374;49.480;20.016;2023-04-03T07:27:01;6.25;;;2.35;;
54464;SDS011;40374;49.480;20.016;2023-04-03T07:29:29;3.72;;;2.15;;
54464;SDS011;40374;49.480;20.016;2023-04-03T07:31:57;4.97;;;2.20;;
54464;SDS011;40374;49.480;20.016;2023-04-03T07:34:25;5.15;;;2.33;;
54464;SDS011;40374;49.480;20.016;2023-04-03T07:36:52;4.07;;;1.27;;
54464;SDS011;40374;49.480;20.016;2023-04-03T07:39:21;2.08;;;1.20;;
54464;SDS011;40374;49.480;20.016;2023-04-03T07:41:49;2.67;;;1.58;;
54464;SDS011;40374;49.480;20.016;2023-04-03T07:44:16;3.00;;;1.58;;
54464;SDS011;40374;49.480;20.016;2023-04-03T07:46:44;2.65;;;1.55;;
54464;SDS011;40374;49.480;20.016;2023-04-03T07:49:12;2.13;;;1.65;;
54464;SDS011;40374;49.480;20.016;2023-04-03T07:51:39;8.70;;;2.65;;
54464;SDS011;40374;49.480;20.016;2023-04-03T07:54:09;2.83;;;1.35;;
54464;SDS011;40374;49.480;20.016;2023-04-03T07:56:36;3.92;;;2.00;;
54464;SDS011;40374;49.480;20.016;2023-04-03T07:59:04;2.75;;;1.40;;
54464;SDS011;40374;49.480;20.016;2023-04-03T08:01:32;3.28;;;1.30;;
54464;SDS011;40374;49.480;20.016;2023-04-03T08:04:00;1.80;;;1.25;;
54464;SDS011;40374;49.480;20.016;2023-04-03T08:06:28;3.33;;;1.58;;
54464;SDS011;40374;49.480;20.016;2023-04-03T08:09:12;5.68;;;2.13;;
54464;SDS011;40374;49.480;20.016;2023-04-03T08:11:42;4.43;;;1.50;;
54464;SDS011;40374;49.480;20.016;2023-04-03T08:14:10;7.45;;;2.70;;
54464;SDS011;40374;49.480;20.016;2023-04-03T08:16:44;8.13;;;3.13;;
54464;SDS011;40374;49.480;20.016;2023-04-03T08:19:14;7.00;;;3.00;;
54464;SDS011;40374;49.480;20.016;2023-04-03T08:21:53;4.47;;;2.45;;
54464;SDS011;40374;49.480;20.016;2023-04-03T08:24:22;3.42;;;2.17;;
54464;SDS011;40374;49.480;20.016;2023-04-03T08:26:49;4.20;;;2.33;;
54464;SDS011;40374;49.480;20.016;2023-04-03T08:29:17;7.03;;;2.83;;
54464;SDS011;40374;49.480;20.016;2023-04-03T08:31:44;5.22;;;2.30;;
54464;SDS011;40374;49.480;20.016;2023-04-03T08:46:10;4.47;;;2.10;;
54464;SDS011;40374;49.480;20.016;2023-04-03T08:48:41;4.80;;;2.40;;
54464;SDS011;40374;49.480;20.016;2023-04-03T08:51:19;4.38;;;2.38;;
54464;SDS011;40374;49.480;20.016;2023-04-03T08:53:59;2.47;;;1.85;;
54464;SDS011;40374;49.480;20.016;2023-04-03T08:56:31;4.63;;;1.75;;
54464;SDS011;40374;49.480;20.016;2023-04-03T08:59:03;3.47;;;1.60;;
54464;SDS011;40374;49.480;20.016;2023-04-03T09:01:37;15.50;;;3.45;;
54464;SDS011;40374;49.480;20.016;2023-04-03T09:04:13;9.93;;;3.53;;
54464;SDS011;40374;49.480;20.016;2023-04-03T09:06:46;10.52;;;3.53;;
54464;SDS011;40374;49.480;20.016;2023-04-03T09:09:25;5.75;;;2.78;;
54464;SDS011;40374;49.480;20.016;2023-04-03T09:12:21;9.27;;;2.95;;
54464;SDS011;40374;49.480;20.016;2023-04-03T09:18:47;8.27;;;3.60;;
54464;SDS011;40374;49.480;20.016;2023-04-03T09:23:31;9.80;;;3.20;;
54464;SDS011;40374;49.480;20.016;2023-04-03T09:28:48;8.43;;;2.60;;
54464;SDS011;40374;49.480;20.016;2023-04-03T09:31:22;8.48;;;3.20;;
54464;SDS011;40374;49.480;20.016;2023-04-03T09:34:13;6.25;;;2.70;;
54464;SDS011;40374;49.480;20.016;2023-04-03T09:37:01;6.97;;;2.40;;
54464;SDS011;40374;49.480;20.016;2023-04-03T09:39:53;8.57;;;3.20;;
54464;SDS011;40374;49.480;20.016;2023-04-03T09:42:22;7.18;;;3.28;;
54464;SDS011;40374;49.480;20.016;2023-04-03T09:44:54;9.00;;;3.10;;
54464;SDS011;40374;49.480;20.016;2023-04-03T09:50:08;5.10;;;2.75;;
54464;SDS011;40374;49.480;20.016;2023-04-03T09:52:40;9.98;;;2.95;;
54464;SDS011;40374;49.480;20.016;2023-04-03T09:55:16;7.43;;;3.30;;
54464;SDS011;40374;49.480;20.016;2023-04-03T09:57:49;16.15;;;3.63;;
54464;SDS011;40374;49.480;20.016;2023-04-03T10:02:49;6.65;;;3.13;;
54464;SDS011;40374;49.480;20.016;2023-04-03T10:05:35;8.45;;;3.20;;
54464;SDS011;40374;49.480;20.016;2023-04-03T10:10:45;5.07;;;2.67;;
54464;SDS011;40374;49.480;20.016;2023-04-03T10:13:15;4.50;;;2.20;;
54464;SDS011;40374;49.480;20.016;2023-04-03T10:15:59;7.07;;;3.00;;
54464;SDS011;40374;49.480;20.016;2023-04-03T10:18:47;6.15;;;2.63;;
54464;SDS011;40374;49.480;20.016;2023-04-03T10:21:40;6.18;;;2.72;;
54464;SDS011;40374;49.480;20.016;2023-04-03T10:24:11;12.20;;;2.85;;
54464;SDS011;40374;49.480;20.016;2023-04-03T10:26:47;13.30;;;3.70;;
54464;SDS011;40374;49.480;20.016;2023-04-03T10:34:59;7.60;;;3.08;;
54464;SDS011;40374;49.480;20.016;2023-04-03T10:40:51;4.80;;;2.85;;
54464;SDS011;40374;49.480;20.016;2023-04-03T10:43:48;9.30;;;3.22;;
54464;SDS011;40374;49.480;20.016;2023-04-03T10:49:09;8.52;;;3.72;;
54464;SDS011;40374;49.480;20.016;2023-04-03T10:51:43;8.10;;;3.22;;
54464;SDS011;40374;49.480;20.016;2023-04-03T10:56:51;8.70;;;3.17;;
54464;SDS011;40374;49.480;20.016;2023-04-03T10:59:45;10.27;;;3.30;;
54464;SDS011;40374;49.480;20.016;2023-04-03T11:05:01;5.57;;;3.40;;
54464;SDS011;40374;49.480;20.016;2023-04-03T11:07:47;8.70;;;3.28;;
54464;SDS011;40374;49.480;20.016;2023-04-03T11:10:27;5.43;;;2.83;;
54464;SDS011;40374;49.480;20.016;2023-04-03T11:15:40;7.95;;;3.03;;
54464;SDS011;40374;49.480;20.016;2023-04-03T11:18:11;5.57;;;2.53;;
54464;SDS011;40374;49.480;20.016;2023-04-03T11:20:44;3.78;;;2.25;;
54464;SDS011;40374;49.480;20.016;2023-04-03T11:23:25;5.57;;;2.85;;
54464;SDS011;40374;49.480;20.016;2023-04-03T11:28:37;3.60;;;2.05;;
54464;SDS011;40374;49.480;20.016;2023-04-03T11:36:25;3.13;;;1.40;;
54464;SDS011;40374;49.480;20.016;2023-04-03T11:39:01;6.38;;;2.00;;
54464;SDS011;40374;49.480;20.016;2023-04-03T11:41:49;4.60;;;1.50;;
54464;SDS011;40374;49.480;20.016;2023-04-03T11:44:37;9.32;;;3.88;;
54464;SDS011;40374;49.480;20.016;2023-04-03T11:47:06;3.53;;;1.75;;
54464;SDS011;40374;49.480;20.016;2023-04-03T12:26:47;6.68;;;3.05;;
54464;SDS011;40374;49.480;20.016;2023-04-03T12:37:51;11.80;;;4.30;;
54464;SDS011;40374;49.480;20.016;2023-04-03T12:40:52;4.82;;;2.25;;
54464;SDS011;40374;49.480;20.016;2023-04-03T12:43:43;2.95;;;1.80;;
54464;SDS011;40374;49.480;20.016;2023-04-03T12:46:37;7.18;;;2.65;;
54464;SDS011;40374;49.480;20.016;2023-04-03T12:49:53;11.00;;;4.88;;
54464;SDS011;40374;49.480;20.016;2023-04-03T12:52:17;3.88;;;2.03;;
54464;SDS011;40374;49.480;20.016;2023-04-03T12:54:52;1.88;;;1.08;;
54464;SDS011;40374;49.480;20.016;2023-04-03T12:57:22;2.10;;;1.23;;
54464;SDS011;40374;49.480;20.016;2023-04-03T12:59:53;7.18;;;2.78;;
54464;SDS011;40374;49.480;20.016;2023-04-03T13:02:28;8.80;;;2.35;;
54464;SDS011;40374;49.480;20.016;2023-04-03T13:04:59;7.60;;;3.17;;
54464;SDS011;40374;49.480;20.016;2023-04-03T13:07:35;3.95;;;2.10;;
54464;SDS011;40374;49.480;20.016;2023-04-03T13:12:57;6.95;;;3.17;;
54464;SDS011;40374;49.480;20.016;2023-04-03T13:15:44;5.03;;;1.90;;
54464;SDS011;40374;49.480;20.016;2023-04-03T13:18:26;5.60;;;2.78;;
54464;SDS011;40374;49.480;20.016;2023-04-03T13:24:03;4.30;;;2.17;;
54464;SDS011;40374;49.480;20.016;2023-04-03T13:26:42;8.60;;;2.58;;
54464;SDS011;40374;49.480;20.016;2023-04-03T13:29:48;8.25;;;2.05;;
54464;SDS011;40374;49.480;20.016;2023-04-03T13:32:06;7.05;;;2.42;;
54464;SDS011;40374;49.480;20.016;2023-04-03T13:34:41;4.97;;;2.00;;
54464;SDS011;40374;49.480;20.016;2023-04-03T13:37:28;4.50;;;2.22;;
54464;SDS011;40374;49.480;20.016;2023-04-03T13:42:36;5.15;;;2.20;;
54464;SDS011;40374;49.480;20.016;2023-04-03T13:45:23;3.20;;;2.38;;
54464;SDS011;40374;49.480;20.016;2023-04-03T13:48:16;6.38;;;3.00;;
54464;SDS011;40374;49.480;20.016;2023-04-03T13:51:32;6.22;;;2.78;;
54464;SDS011;40374;49.480;20.016;2023-04-03T13:54:12;5.95;;;2.85;;
54464;SDS011;40374;49.480;20.016;2023-04-03T13:56:45;10.43;;;3.60;;
54464;SDS011;40374;49.480;20.016;2023-04-03T14:01:48;5.35;;;2.47;;
54464;SDS011;40374;49.480;20.016;2023-04-03T14:04:22;11.43;;;3.67;;
54464;SDS011;40374;49.480;20.016;2023-04-03T14:06:55;7.40;;;2.60;;
54464;SDS011;40374;49.480;20.016;2023-04-03T14:09:23;9.38;;;3.22;;
54464;SDS011;40374;49.480;20.016;2023-04-03T14:11:57;9.23;;;3.38;;
54464;SDS011;40374;49.480;20.016;2023-04-03T14:14:32;12.77;;;3.92;;
54464;SDS011;40374;49.480;20.016;2023-04-03T14:17:03;4.80;;;2.90;;
54464;SDS011;40374;49.480;20.016;2023-04-03T14:19:52;12.57;;;4.97;;
54464;SDS011;40374;49.480;20.016;2023-04-03T14:22:22;11.80;;;4.13;;
54464;SDS011;40374;49.480;20.016;2023-04-03T14:24:56;11.55;;;4.75;;
54464;SDS011;40374;49.480;20.016;2023-04-03T14:27:28;14.95;;;5.80;;
54464;SDS011;40374;49.480;20.016;2023-04-03T14:30:00;12.80;;;4.97;;
54464;SDS011;40374;49.480;20.016;2023-04-03T14:32:31;12.07;;;4.45;;
54464;SDS011;40374;49.480;20.016;2023-04-03T14:34:58;9.50;;;3.03;;
54464;SDS011;40374;49.480;20.016;2023-04-03T14:37:28;11.50;;;3.63;;
54464;SDS011;40374;49.480;20.016;2023-04-03T14:39:58;10.27;;;3.72;;
54464;SDS011;40374;49.480;20.016;2023-04-03T14:42:27;10.60;;;4.25;;
54464;SDS011;40374;49.480;20.016;2023-04-03T14:44:58;8.77;;;3.33;;
54464;SDS011;40374;49.480;20.016;2023-04-03T14:47:27;10.80;;;3.88;;
54464;SDS011;40374;49.480;20.016;2023-04-03T14:49:59;7.35;;;3.25;;
54464;SDS011;40374;49.480;20.016;2023-04-03T14:52:32;6.10;;;3.60;;
54464;SDS011;40374;49.480;20.016;2023-04-03T14:55:04;9.07;;;3.60;;
54464;SDS011;40374;49.480;20.016;2023-04-03T14:57:33;11.60;;;3.78;;
54464;SDS011;40374;49.480;20.016;2023-04-03T15:00:01;10.07;;;2.45;;
54464;SDS011;40374;49.480;20.016;2023-04-03T15:02:35;4.50;;;2.67;;
54464;SDS011;40374;49.480;20.016;2023-04-03T15:05:06;13.38;;;4.38;;
54464;SDS011;40374;49.480;20.016;2023-04-03T15:07:37;9.52;;;3.78;;
54464;SDS011;40374;49.480;20.016;2023-04-03T15:10:20;4.45;;;2.67;;
54464;SDS011;40374;49.480;20.016;2023-04-03T15:12:50;10.20;;;4.30;;
54464;SDS011;40374;49.480;20.016;2023-04-03T15:15:19;7.57;;;3.47;;
54464;SDS011;40374;49.480;20.016;2023-04-03T15:17:50;6.80;;;3.00;;
54464;SDS011;40374;49.480;20.016;2023-04-03T15:20:22;7.47;;;3.67;;
54464;SDS011;40374;49.480;20.016;2023-04-03T15:22:52;10.98;;;4.30;;
54464;SDS011;40374;49.480;20.016;2023-04-03T15:25:19;8.18;;;3.55;;
54464;SDS011;40374;49.480;20.016;2023-04-03T15:27:47;5.70;;;3.22;;
54464;SDS011;40374;49.480;20.016;2023-04-03T15:30:17;6.97;;;3.25;;
54464;SDS011;40374;49.480;20.016;2023-04-03T15:32:45;4.82;;;3.10;;
54464;SDS011;40374;49.480;20.016;2023-04-03T15:35:13;9.43;;;4.68;;
54464;SDS011;40374;49.480;20.016;2023-04-03T15:37:41;13.73;;;5.05;;
54464;SDS011;40374;49.480;20.016;2023-04-03T15:40:08;9.48;;;4.15;;
54464;SDS011;40374;49.480;20.016;2023-04-03T15:42:36;7.30;;;3.38;;
54464;SDS011;40374;49.480;20.016;2023-04-03T15:45:04;9.75;;;3.72;;
54464;SDS011;40374;49.480;20.016;2023-04-03T15:47:32;7.97;;;4.22;;
54464;SDS011;40374;49.480;20.016;2023-04-03T15:49:59;9.65;;;4.13;;
54464;SDS011;40374;49.480;20.016;2023-04-03T15:52:27;8.05;;;3.85;;
54464;SDS011;40374;49.480;20.016;2023-04-03T15:54:55;7.28;;;2.97;;
54464;SDS011;40374;49.480;20.016;2023-04-03T15:57:22;7.05;;;3.53;;
54464;SDS011;40374;49.480;20.016;2023-04-03T15:59:52;6.75;;;2.72;;
54464;SDS011;40374;49.480;20.016;2023-04-03T16:02:23;13.20;;;3.80;;
54464;SDS011;40374;49.480;20.016;2023-04-03T16:04:54;16.20;;;4.70;;
54464;SDS011;40374;49.480;20.016;2023-04-03T16:07:22;13.13;;;5.22;;
54464;SDS011;40374;49.480;20.016;2023-04-03T16:09:49;22.70;;;8.10;;
54464;SDS011;40374;49.480;20.016;2023-04-03T16:12:17;11.73;;;4.10;;
54464;SDS011;40374;49.480;20.016;2023-04-03T16:14:44;13.38;;;4.40;;
54464;SDS011;40374;49.480;20.016;2023-04-03T16:17:12;8.32;;;3.47;;
54464;SDS011;40374;49.480;20.016;2023-04-03T16:19:39;12.82;;;3.78;;
54464;SDS011;40374;49.480;20.016;2023-04-03T16:22:07;11.70;;;3.65;;
54464;SDS011;40374;49.480;20.016;2023-04-03T16:24:34;9.73;;;3.47;;
54464;SDS011;40374;49.480;20.016;2023-04-03T16:27:05;6.88;;;3.40;;
54464;SDS011;40374;49.480;20.016;2023-04-03T16:29:33;6.68;;;2.90;;
54464;SDS011;40374;49.480;20.016;2023-04-03T16:32:01;13.13;;;3.90;;
54464;SDS011;40374;49.480;20.016;2023-04-03T16:34:28;11.48;;;3.67;;
54464;SDS011;40374;49.480;20.016;2023-04-03T16:36:58;14.32;;;4.38;;
54464;SDS011;40374;49.480;20.016;2023-04-03T16:39:25;13.55;;;4.90;;
54464;SDS011;40374;49.480;20.016;2023-04-03T16:41:54;10.52;;;4.53;;
54464;SDS011;40374;49.480;20.016;2023-04-03T16:44:21;18.67;;;4.15;;
54464;SDS011;40374;49.480;20.016;2023-04-03T16:46:49;10.43;;;3.75;;
54464;SDS011;40374;49.480;20.016;2023-04-03T16:49:17;8.63;;;3.80;;
54464;SDS011;40374;49.480;20.016;2023-04-03T16:51:45;14.63;;;4.70;;
54464;SDS011;40374;49.480;20.016;2023-04-03T16:54:12;12.27;;;4.53;;